This is the latest recevied weather packets stored in our database for station/object HS3UAA-1. If no packets are shown the sender has not sent any weather packets the latest 10 day(s).
| Time | Temp. | Humidity | Pressure | Rain* | Wind** | Luminosity | Snow |
|---|---|---|---|---|---|---|---|
| 1777546958 | 36.11° C | 34% | 994 hPa | - | - | 0 W/m² | - |
| 1777546635 | 35.56° C | 34% | 994 hPa | - | - | 0 W/m² | - |
| 1777546313 | 35.56° C | 34% | 994 hPa | - | - | 0 W/m² | - |
| 1777545990 | 35.56° C | 34% | 994 hPa | - | - | 0 W/m² | - |
| 1777545668 | 35° C | 35% | 994 hPa | - | - | 0 W/m² | - |
| 1777545346 | 35° C | 35% | 994 hPa | - | - | 0 W/m² | - |
| 1777545024 | 34.44° C | 35% | 994 hPa | - | - | 0 W/m² | - |
| 1777544701 | 34.44° C | 34% | 994 hPa | - | - | 0 W/m² | - |
| 1777544379 | 34.44° C | 34% | 994 hPa | - | - | 0 W/m² | - |
| 1777544057 | 33.89° C | 34% | 994 hPa | - | - | 0 W/m² | - |
| 1777543735 | 33.33° C | 35% | 994 hPa | - | - | 0 W/m² | - |
| 1777540638 | 28.89° C | 39% | 994 hPa | - | - | 0 W/m² | - |
| 1777540316 | 28.89° C | 39% | 994 hPa | - | - | 0 W/m² | - |
| 1777539994 | 28.89° C | 40% | 994 hPa | - | - | 0 W/m² | - |
| 1777539640 | 28.89° C | 40% | 994 hPa | - | - | 0 W/m² | - |
| 1777539318 | 29.44° C | 40% | 994 hPa | - | - | 0 W/m² | - |
| 1777538996 | 28.89° C | 43% | 994 hPa | - | - | 0 W/m² | - |
| 1777538674 | 28.33° C | 39% | 994 hPa | - | - | 0 W/m² | - |
| 1777538352 | 28.89° C | 39% | 994 hPa | - | - | 0 W/m² | - |
| 1777538030 | 28.89° C | 39% | 995 hPa | - | - | 0 W/m² | - |
| 1777537707 | 28.89° C | 39% | 995 hPa | - | - | 0 W/m² | - |
| 1777537385 | 28.89° C | 39% | 995 hPa | - | - | 0 W/m² | - |
| 1777537063 | 28.89° C | 39% | 994 hPa | - | - | 0 W/m² | - |
| 1777536741 | 28.89° C | 39% | 994 hPa | - | - | 0 W/m² | - |
| 1777536419 | 28.89° C | 39% | 994 hPa | - | - | 0 W/m² | - |
* Rain since midnight (hover to see other rain measurements)
** Current wind speed in m/s (hover to see current wind gust speed)